Airfield :
LOGIN :

Register | Disclaimer

   EN    FR    IT 

 










Legend :    VFR   Marginal VFR   IFR   Intensive IFR   Very Intensive IFR
Visi :
Ceiling :
>= 8 km
>= 3000ft
5 to 8 km
1000 to 3000 ft
1500m to 5 km
500 to 1000 ft
800 to 1500m
200 to 500 ft
< 800m
< 200 ft
Symbols :   Thunderstorms  Fog  Heavy snow  Heavy precipitations  Wind > 20 kt
SIGMETs :     Misc.  Thunderstorms  Icing  Turbulence  Mountain Waves  Volcanic Ashes







- Airport Elevation : 141 ft
- IATA code : SKS


EKSP - Srydstrup Vojens

CURRENT METAR :
  • 142020Z 20007KT 9999 SCT032 01/M00 Q0985

EXPIRED METARs :
  • 141950Z 20007KT 9999 SCT032 BKN180 01/M00 Q0985
  • 141920Z 21007KT CAVOK 01/M00 Q0985 RMK FEW053 BKN180
  • 141850Z 21006KT 9999 FEW033 BKN180 01/M00 Q0985
  • 141820Z 22007KT 9999 FEW015TCU FEW045 BKN180 01/00 Q0985
  • 141750Z 22008KT 9999 FEW015TCU SCT045 BKN180 01/01 Q0985

TAF TAF EKSP
Valid from the 14 at 21:00 until the 15 at 18:00 UTC


142012Z 1421/1518 21006KT 9999 BKN035
TEMPO 1421/1502 4000 SHRASN BKN012 SCT025CB
TEMPO 1502/1518 0400 FG FZFG VV002
No reported NOTAMs for that airfield.



MET'MAP, your aeronautical weather chart ! - Copyright ORBIFLY December 2007 - Disclaimer

ORBIFLY MET'MAP TEAM :

Programming & Development : Alexandra Zaïnal
Concept & Development : Baudouin d'Aumeries
Co-Development & Prog : Marc-Olivier Méhu
Technical & hardware support : Manuel Goepfert

Contact : metmap@orbifly.com




SOURCES & CREDITS :

   NOAA